Time;durP1;ratioP1;P1;durP2;ratioP2;P2;SDS_P1;SDS_P2;PMS_P1;PMS_P2;Temp;Humidity;BMP_temperature;BMP_pressure;BME280_temperature;BME280_humidity;BME280_pressure;Samples;Min_cycle;Max_cycle;Signal;HPM_P1;HPM_P2
2021/07/16 00:00:25;;;;;;;24.40;10.57;;;;;;;;;;5052260;28;20465;-89
2021/07/16 00:02:50;;;;;;;25.98;10.77;;;;;;;;;;5053829;28;20449;-88
2021/07/16 00:05:15;;;;;;;26.65;10.00;;;;;;;;;;5052183;28;20021;-88
2021/07/16 00:07:41;;;;;;;28.48;11.57;;;;;;;;;;5052838;28;20028;-88
2021/07/16 00:10:08;;;;;;;26.40;10.43;;;;;;;;;;5052574;28;20431;-89
2021/07/16 00:12:33;;;;;;;24.85;11.50;;;;;;;;;;5085811;28;20032;-88
2021/07/16 00:14:59;;;;;;;27.95;10.75;;;;;;;;;;5052444;28;20023;-89
2021/07/16 00:17:24;;;;;;;24.58;9.73;;;;;;;;;;5053617;28;20017;-89
2021/07/16 00:19:49;;;;;;;25.45;10.40;;;;;;;;;;5052433;28;20100;-89
2021/07/16 00:22:14;;;;;;;27.70;10.32;;;;;;;;;;5052225;28;20044;-89
2021/07/16 00:24:39;;;;;;;33.22;9.82;;;;;;;;;;5052399;28;20458;-89
2021/07/16 00:27:05;;;;;;;21.85;9.57;;;;;;;;;;5052314;28;20091;-89
2021/07/16 00:29:31;;;;;;;29.33;10.60;;;;;;;;;;5053193;28;20393;-89
2021/07/16 00:31:56;;;;;;;30.95;11.02;;;;;;;;;;5052260;28;20021;-89
2021/07/16 00:34:21;;;;;;;34.25;11.52;;;;;;;;;;5051836;28;20118;-89
2021/07/16 00:36:47;;;;;;;16.92;9.25;;;;;;;;;;5053386;28;20419;-89
2021/07/16 00:39:12;;;;;;;22.38;9.32;;;;;;;;;;5053476;28;20110;-89
2021/07/16 00:41:37;;;;;;;21.88;10.90;;;;;;;;;;5052157;28;20017;-89
2021/07/16 00:44:02;;;;;;;21.85;10.38;;;;;;;;;;5053509;28;20384;-89
2021/07/16 00:46:28;;;;;;;22.90;10.20;;;;;;;;;;5051840;28;20054;-89
2021/07/16 00:48:53;;;;;;;27.48;10.65;;;;;;;;;;5053318;28;20027;-89
2021/07/16 00:51:18;;;;;;;26.23;9.93;;;;;;;;;;5053356;28;20028;-89
2021/07/16 00:53:43;;;;;;;22.05;9.60;;;;;;;;;;5051891;28;20020;-88
2021/07/16 00:56:09;;;;;;;26.73;9.73;;;;;;;;;;5053201;28;20523;-89
2021/07/16 00:58:34;;;;;;;24.77;11.88;;;;;;;;;;5052693;28;20024;-89
2021/07/16 01:01:01;;;;;;;28.23;10.52;;;;;;;;;;5051578;28;20349;-89
2021/07/16 01:03:26;;;;;;;25.58;10.15;;;;;;;;;;5051765;28;20059;-89
2021/07/16 01:05:51;;;;;;;19.42;8.77;;;;;;;;;;5051346;28;20063;-88
2021/07/16 01:08:16;;;;;;;19.63;9.55;;;;;;;;;;5052732;28;20583;-89
2021/07/16 01:10:42;;;;;;;23.23;9.73;;;;;;;;;;5051246;28;20029;-89
2021/07/16 01:13:13;;;;;;;17.40;9.35;;;;;;;;;;5052785;28;20016;-89
2021/07/16 01:15:39;;;;;;;31.30;9.45;;;;;;;;;;5051275;28;20021;-88
2021/07/16 01:18:04;;;;;;;21.73;10.00;;;;;;;;;;5051457;28;20094;-89
2021/07/16 01:20:30;;;;;;;23.90;9.30;;;;;;;;;;5051375;28;20052;-89
2021/07/16 01:22:57;;;;;;;22.42;10.63;;;;;;;;;;5038698;28;20096;-89
2021/07/16 01:25:23;;;;;;;31.52;10.35;;;;;;;;;;5052637;28;20373;-89
2021/07/16 01:27:50;;;;;;;18.10;8.98;;;;;;;;;;5052232;28;20475;-89
2021/07/16 01:30:17;;;;;;;21.42;10.02;;;;;;;;;;5051642;28;20075;-89
2021/07/16 01:32:43;;;;;;;20.42;9.90;;;;;;;;;;5050981;28;20037;-89
2021/07/16 01:35:09;;;;;;;27.00;9.48;;;;;;;;;;5051230;28;20048;-89
2021/07/16 01:37:35;;;;;;;36.35;10.65;;;;;;;;;;5051131;28;20020;-89
2021/07/16 01:40:01;;;;;;;27.98;9.73;;;;;;;;;;5052281;28;20044;-89
2021/07/16 01:42:32;;;;;;;22.15;8.93;;;;;;;;;;5051315;28;20017;-89
2021/07/16 01:44:59;;;;;;;24.02;8.50;;;;;;;;;;5051246;28;20533;-89
2021/07/16 01:47:25;;;;;;;20.55;9.75;;;;;;;;;;5054062;28;20017;-89
2021/07/16 01:49:50;;;;;;;21.17;9.65;;;;;;;;;;5056371;28;20039;-89
2021/07/16 01:52:15;;;;;;;20.63;9.00;;;;;;;;;;5056798;28;20023;-88
2021/07/16 01:54:40;;;;;;;27.77;9.98;;;;;;;;;;5055833;28;20033;-88
2021/07/16 01:57:05;;;;;;;23.80;10.82;;;;;;;;;;5056319;28;20017;-89
2021/07/16 01:59:31;;;;;;;30.15;11.00;;;;;;;;;;5055112;28;20370;-89
2021/07/16 02:01:56;;;;;;;21.13;9.27;;;;;;;;;;5056308;28;20350;-89
2021/07/16 02:04:22;;;;;;;30.92;9.23;;;;;;;;;;5055103;28;20369;-89
2021/07/16 02:06:47;;;;;;;22.25;9.40;;;;;;;;;;5056215;28;20045;-89
2021/07/16 02:09:12;;;;;;;27.92;9.90;;;;;;;;;;5054936;28;20025;-89
2021/07/16 02:11:38;;;;;;;21.98;9.68;;;;;;;;;;5055023;28;20484;-89
2021/07/16 02:14:03;;;;;;;19.60;9.23;;;;;;;;;;5054606;28;20032;-89
2021/07/16 02:16:28;;;;;;;27.13;9.48;;;;;;;;;;5056050;28;20025;-89
2021/07/16 02:18:54;;;;;;;28.70;9.57;;;;;;;;;;5054493;28;20380;-89
2021/07/16 02:21:19;;;;;;;29.50;9.10;;;;;;;;;;5053010;28;20017;-89
2021/07/16 02:23:45;;;;;;;16.30;8.73;;;;;;;;;;5055849;28;20012;-88
2021/07/16 02:26:10;;;;;;;26.70;9.65;;;;;;;;;;5054909;28;20013;-89
2021/07/16 02:28:36;;;;;;;27.38;9.05;;;;;;;;;;5056014;28;20740;-89
2021/07/16 02:31:05;;;;;;;28.63;10.50;;;;;;;;;;5054446;28;20353;-89
2021/07/16 02:33:31;;;;;;;21.30;10.27;;;;;;;;;;5088076;28;20071;-89
2021/07/16 02:35:57;;;;;;;26.35;9.88;;;;;;;;;;5054479;28;20029;-89
2021/07/16 02:38:22;;;;;;;27.27;10.85;;;;;;;;;;5040484;28;20067;-89
2021/07/16 02:40:48;;;;;;;16.25;9.65;;;;;;;;;;5054625;28;20100;-89
2021/07/16 02:43:14;;;;;;;24.10;10.45;;;;;;;;;;5054262;28;20510;-89
2021/07/16 02:45:40;;;;;;;22.65;9.23;;;;;;;;;;5054391;28;20028;-89
2021/07/16 02:48:05;;;;;;;26.73;10.10;;;;;;;;;;5054463;28;20325;-89
2021/07/16 02:50:32;;;;;;;22.45;10.10;;;;;;;;;;5087647;28;20017;-89
2021/07/16 02:52:57;;;;;;;22.55;8.75;;;;;;;;;;5087614;28;20028;-89
2021/07/16 02:55:22;;;;;;;23.58;9.75;;;;;;;;;;5054074;28;20480;-89
2021/07/16 02:57:48;;;;;;;25.05;10.00;;;;;;;;;;5053929;28;20497;-89
2021/07/16 03:00:14;;;;;;;22.90;9.82;;;;;;;;;;5053998;28;20094;-89
2021/07/16 03:02:41;;;;;;;20.23;9.63;;;;;;;;;;5053594;28;20017;-89
2021/07/16 03:05:07;;;;;;;19.48;9.68;;;;;;;;;;5053880;28;20048;-89
2021/07/16 03:07:32;;;;;;;17.48;8.63;;;;;;;;;;5053942;28;20017;-89
2021/07/16 03:09:58;;;;;;;20.83;8.68;;;;;;;;;;5055259;28;20526;-89
2021/07/16 03:12:23;;;;;;;26.88;8.90;;;;;;;;;;5055038;28;20013;-89
2021/07/16 03:14:48;;;;;;;27.55;8.93;;;;;;;;;;5053826;28;20066;-89
2021/07/16 03:17:13;;;;;;;23.52;9.68;;;;;;;;;;5053382;28;20029;-89
2021/07/16 03:19:38;;;;;;;20.77;8.90;;;;;;;;;;5054998;28;20020;-88
2021/07/16 03:22:04;;;;;;;20.95;9.02;;;;;;;;;;5053708;28;20306;-89
2021/07/16 03:24:29;;;;;;;27.60;10.85;;;;;;;;;;5053597;28;20491;-89
2021/07/16 03:26:54;;;;;;;24.30;8.65;;;;;;;;;;5087172;28;20108;-88
2021/07/16 03:29:19;;;;;;;19.70;8.50;;;;;;;;;;5053387;28;20023;-89
2021/07/16 03:31:44;;;;;;;17.77;8.13;;;;;;;;;;5053401;28;20147;-89
2021/07/16 03:34:10;;;;;;;19.67;9.07;;;;;;;;;;5053382;28;20029;-88
2021/07/16 03:36:35;;;;;;;18.83;8.63;;;;;;;;;;5053358;28;20017;-88
2021/07/16 03:39:00;;;;;;;24.80;8.20;;;;;;;;;;5053368;28;20375;-88
2021/07/16 03:41:26;;;;;;;19.15;8.40;;;;;;;;;;5053160;28;20040;-89
2021/07/16 03:43:51;;;;;;;30.58;8.18;;;;;;;;;;5053511;28;20019;-89
2021/07/16 03:46:16;;;;;;;22.23;8.38;;;;;;;;;;5053191;28;20521;-89
2021/07/16 03:48:42;;;;;;;21.10;8.60;;;;;;;;;;5053537;28;20021;-89
2021/07/16 03:51:07;;;;;;;20.98;8.68;;;;;;;;;;5053367;28;20028;-89
2021/07/16 03:53:33;;;;;;;30.08;9.15;;;;;;;;;;5053032;28;20033;-89
2021/07/16 03:55:58;;;;;;;21.35;9.25;;;;;;;;;;5054503;28;20029;-89
2021/07/16 03:58:23;;;;;;;18.63;7.82;;;;;;;;;;5054244;28;20021;-89
2021/07/16 04:00:48;;;;;;;16.20;7.80;;;;;;;;;;5052877;28;20017;-89
2021/07/16 04:03:15;;;;;;;22.52;9.02;;;;;;;;;;5054348;28;20111;-89
2021/07/16 04:05:41;;;;;;;20.30;9.98;;;;;;;;;;5052792;28;20017;-89
2021/07/16 04:08:07;;;;;;;28.52;9.48;;;;;;;;;;5053000;28;20364;-88
2021/07/16 04:10:33;;;;;;;31.33;9.02;;;;;;;;;;5052153;28;20372;-88
2021/07/16 04:13:02;;;;;;;27.92;9.98;;;;;;;;;;5052730;28;20460;-89
2021/07/16 04:15:27;;;;;;;24.98;9.13;;;;;;;;;;5052589;28;20486;-89
2021/07/16 04:17:53;;;;;;;20.42;9.30;;;;;;;;;;5052628;28;20048;-89
2021/07/16 04:20:18;;;;;;;27.48;8.88;;;;;;;;;;5052508;28;20029;-88
2021/07/16 04:22:45;;;;;;;26.73;11.00;;;;;;;;;;5052551;28;20431;-89
2021/07/16 04:25:14;;;;;;;23.65;9.60;;;;;;;;;;5053759;28;20088;-89
2021/07/16 04:27:39;;;;;;;29.38;9.15;;;;;;;;;;5052361;28;20048;-89
2021/07/16 04:30:05;;;;;;;23.77;8.85;;;;;;;;;;5052276;28;20025;-89
2021/07/16 04:32:30;;;;;;;20.15;8.65;;;;;;;;;;5052125;28;20488;-88
2021/07/16 04:34:55;;;;;;;22.58;10.02;;;;;;;;;;5052438;28;20017;-89
2021/07/16 04:37:20;;;;;;;23.83;8.77;;;;;;;;;;5052326;28;20036;-89
2021/07/16 04:39:45;;;;;;;19.33;8.13;;;;;;;;;;5052194;28;20112;-89
2021/07/16 04:42:11;;;;;;;26.67;10.18;;;;;;;;;;5052405;28;20028;-89
2021/07/16 04:44:36;;;;;;;29.08;9.65;;;;;;;;;;5053318;28;20021;-88
2021/07/16 04:47:02;;;;;;;25.98;9.63;;;;;;;;;;5052032;28;20448;-89
2021/07/16 04:49:27;;;;;;;21.83;8.27;;;;;;;;;;5052120;28;20028;-90
2021/07/16 04:51:53;;;;;;;21.10;8.73;;;;;;;;;;5051791;28;20060;-89
2021/07/16 04:54:18;;;;;;;19.98;8.55;;;;;;;;;;5051832;28;20028;-89
2021/07/16 04:56:44;;;;;;;23.20;8.95;;;;;;;;;;5051710;28;20021;-89
2021/07/16 04:59:09;;;;;;;31.63;9.63;;;;;;;;;;5051999;28;20029;-89
2021/07/16 05:01:34;;;;;;;26.02;10.50;;;;;;;;;;5051359;28;20048;-89
2021/07/16 05:03:59;;;;;;;27.88;8.70;;;;;;;;;;5037942;28;20021;-89
2021/07/16 05:06:25;;;;;;;30.25;8.90;;;;;;;;;;5051850;28;20029;-89
2021/07/16 05:08:50;;;;;;;22.45;8.77;;;;;;;;;;5053376;28;20116;-89
2021/07/16 05:11:16;;;;;;;27.13;8.35;;;;;;;;;;5051849;28;20036;-89
2021/07/16 05:13:42;;;;;;;19.38;7.90;;;;;;;;;;5051641;28;20427;-89
2021/07/16 05:16:08;;;;;;;23.05;8.63;;;;;;;;;;5051358;28;20091;-89
2021/07/16 05:18:33;;;;;;;21.98;8.77;;;;;;;;;;5051450;28;20029;-89
2021/07/16 05:20:58;;;;;;;24.48;8.25;;;;;;;;;;5065731;28;20071;-89
2021/07/16 05:23:24;;;;;;;23.23;9.10;;;;;;;;;;5051610;28;20032;-89
2021/07/16 05:25:49;;;;;;;22.73;8.93;;;;;;;;;;5051505;28;20024;-89
2021/07/16 05:28:14;;;;;;;23.17;9.15;;;;;;;;;;5051665;28;20017;-89
2021/07/16 05:30:40;;;;;;;21.13;9.23;;;;;;;;;;5052451;28;20017;-89
2021/07/16 05:33:05;;;;;;;27.25;8.80;;;;;;;;;;5052708;28;20151;-89
2021/07/16 05:35:30;;;;;;;24.52;8.93;;;;;;;;;;5053245;28;20138;-89
2021/07/16 05:37:56;;;;;;;19.73;8.20;;;;;;;;;;5051275;28;20108;-89
2021/07/16 05:40:21;;;;;;;28.15;9.63;;;;;;;;;;5051581;28;20469;-89
2021/07/16 05:42:46;;;;;;;27.92;8.57;;;;;;;;;;5052735;28;20021;-89
2021/07/16 05:45:11;;;;;;;27.80;8.35;;;;;;;;;;5051046;28;20460;-89
2021/07/16 05:47:36;;;;;;;22.70;9.73;;;;;;;;;;5051283;28;20029;-89
2021/07/16 05:50:02;;;;;;;26.10;8.48;;;;;;;;;;5051196;28;20017;-89
2021/07/16 05:52:29;;;;;;;26.38;9.80;;;;;;;;;;5051446;28;20487;-90
2021/07/16 05:54:55;;;;;;;26.35;9.70;;;;;;;;;;5052589;28;20025;-89
2021/07/16 05:57:20;;;;;;;30.65;9.38;;;;;;;;;;5052982;28;20020;-89
2021/07/16 05:59:45;;;;;;;23.35;9.10;;;;;;;;;;5051235;28;20021;-89
2021/07/16 06:02:10;;;;;;;24.58;8.65;;;;;;;;;;5050531;28;20025;-89
2021/07/16 06:04:36;;;;;;;26.05;9.18;;;;;;;;;;5052168;28;20413;-89
2021/07/16 06:07:01;;;;;;;29.10;8.80;;;;;;;;;;5051512;28;20104;-90
2021/07/16 06:09:26;;;;;;;22.75;8.43;;;;;;;;;;5050844;28;20497;-90
2021/07/16 06:11:51;;;;;;;24.10;8.40;;;;;;;;;;5050767;28;20108;-89
2021/07/16 06:14:18;;;;;;;38.67;8.43;;;;;;;;;;5050698;28;20029;-89
2021/07/16 06:16:43;;;;;;;20.67;7.85;;;;;;;;;;5050421;28;20036;-90
2021/07/16 06:19:08;;;;;;;26.05;7.53;;;;;;;;;;5051643;28;20029;-90
2021/07/16 06:21:34;;;;;;;21.52;8.25;;;;;;;;;;5050450;28;20025;-89
2021/07/16 06:23:59;;;;;;;30.00;8.80;;;;;;;;;;5050136;28;20460;-89
2021/07/16 06:26:24;;;;;;;29.88;8.30;;;;;;;;;;5050285;28;20052;-90
2021/07/16 06:28:49;;;;;;;21.98;8.25;;;;;;;;;;5051463;28;20044;-89
2021/07/16 06:31:15;;;;;;;32.28;8.32;;;;;;;;;;5047872;28;20052;-90
2021/07/16 06:33:40;;;;;;;28.85;7.93;;;;;;;;;;5046355;28;20384;-90
2021/07/16 06:36:05;;;;;;;20.95;7.25;;;;;;;;;;5054499;28;20392;-90
2021/07/16 06:38:30;;;;;;;38.10;8.57;;;;;;;;;;5054561;28;20017;-89
2021/07/16 06:40:55;;;;;;;35.90;8.52;;;;;;;;;;5054684;28;20020;-90
2021/07/16 06:43:21;;;;;;;27.63;8.45;;;;;;;;;;5054467;28;20494;-90
2021/07/16 06:45:46;;;;;;;29.25;7.72;;;;;;;;;;5054322;28;20479;-89
2021/07/16 06:48:11;;;;;;;39.30;9.02;;;;;;;;;;5054477;28;20013;-90
2021/07/16 06:50:36;;;;;;;32.38;7.85;;;;;;;;;;5054531;28;20017;-89
2021/07/16 06:53:03;;;;;;;29.10;7.57;;;;;;;;;;5054769;28;20068;-89
2021/07/16 06:55:28;;;;;;;25.23;7.07;;;;;;;;;;5054389;28;20017;-89
2021/07/16 06:57:53;;;;;;;22.60;7.20;;;;;;;;;;5054354;28;20395;-90
2021/07/16 07:00:19;;;;;;;26.92;7.32;;;;;;;;;;5054089;28;20082;-89
2021/07/16 07:02:44;;;;;;;19.48;6.63;;;;;;;;;;5055260;28;20013;-90
2021/07/16 07:05:09;;;;;;;24.48;7.53;;;;;;;;;;5055201;28;20063;-89
2021/07/16 07:07:34;;;;;;;25.55;7.80;;;;;;;;;;5055399;28;20456;-89
2021/07/16 07:10:00;;;;;;;32.63;8.45;;;;;;;;;;5053332;28;20017;-90
2021/07/16 07:12:25;;;;;;;25.13;7.53;;;;;;;;;;5054237;28;20052;-89
2021/07/16 07:14:52;;;;;;;22.52;7.13;;;;;;;;;;5054090;28;20021;-89
2021/07/16 07:17:18;;;;;;;22.30;7.57;;;;;;;;;;5053680;28;20112;-90
2021/07/16 07:19:43;;;;;;;18.52;6.57;;;;;;;;;;5054936;28;20384;-90
2021/07/16 07:22:08;;;;;;;28.95;7.15;;;;;;;;;;5054308;28;20013;-90
2021/07/16 07:24:33;;;;;;;19.33;6.95;;;;;;;;;;5054881;28;20012;-90
2021/07/16 07:26:58;;;;;;;28.25;8.60;;;;;;;;;;5053778;28;20121;-89
2021/07/16 07:29:24;;;;;;;19.25;7.20;;;;;;;;;;5053333;28;20059;-89
2021/07/16 07:31:50;;;;;;;21.65;7.28;;;;;;;;;;5053798;28;20021;-90
2021/07/16 07:34:15;;;;;;;24.08;6.85;;;;;;;;;;5053626;28;20025;-89
2021/07/16 07:36:40;;;;;;;25.58;7.95;;;;;;;;;;5053144;28;20017;-89
2021/07/16 07:39:06;;;;;;;29.33;7.35;;;;;;;;;;5053367;28;20539;-89
2021/07/16 07:41:31;;;;;;;24.52;6.60;;;;;;;;;;5053283;28;20052;-89
2021/07/16 07:43:56;;;;;;;28.92;7.90;;;;;;;;;;5054249;28;20013;-89
2021/07/16 07:46:22;;;;;;;20.38;6.80;;;;;;;;;;5053632;28;20115;-90
2021/07/16 07:48:48;;;;;;;20.95;7.00;;;;;;;;;;5053210;28;20469;-89
2021/07/16 07:51:13;;;;;;;30.55;7.32;;;;;;;;;;5054528;28;20051;-89
2021/07/16 07:53:38;;;;;;;29.00;7.65;;;;;;;;;;5053025;28;20499;-89
2021/07/16 07:56:03;;;;;;;26.25;7.28;;;;;;;;;;5044327;28;20040;-90
2021/07/16 07:58:29;;;;;;;27.35;7.97;;;;;;;;;;5054066;28;20040;-89
2021/07/16 08:00:54;;;;;;;30.35;7.20;;;;;;;;;;5052652;28;20017;-89
2021/07/16 08:03:19;;;;;;;25.58;7.53;;;;;;;;;;5054137;28;20110;-90
2021/07/16 08:05:44;;;;;;;17.52;6.13;;;;;;;;;;5052847;28;20086;-89
2021/07/16 08:08:10;;;;;;;17.60;5.88;;;;;;;;;;5052835;28;20536;-90
2021/07/16 08:10:35;;;;;;;24.75;6.03;;;;;;;;;;5053978;28;20012;-89
2021/07/16 08:13:00;;;;;;;24.23;6.25;;;;;;;;;;5054067;28;20100;-89
2021/07/16 08:15:25;;;;;;;30.05;8.45;;;;;;;;;;5052113;28;20021;-90
2021/07/16 08:17:51;;;;;;;27.92;6.38;;;;;;;;;;5052547;28;20472;-89
2021/07/16 08:20:16;;;;;;;24.85;8.25;;;;;;;;;;5052605;28;20432;-89
2021/07/16 08:22:42;;;;;;;32.17;7.68;;;;;;;;;;5052538;28;20013;-90
2021/07/16 08:25:08;;;;;;;21.52;6.32;;;;;;;;;;5053632;28;20515;-89
2021/07/16 08:27:33;;;;;;;28.20;6.40;;;;;;;;;;5052299;28;20013;-89
2021/07/16 08:29:58;;;;;;;22.08;6.28;;;;;;;;;;5053648;28;20017;-90
2021/07/16 08:32:24;;;;;;;26.33;6.85;;;;;;;;;;5052274;28;20021;-89
2021/07/16 08:34:49;;;;;;;25.33;7.28;;;;;;;;;;5052227;28;20017;-89
2021/07/16 08:37:14;;;;;;;33.72;7.18;;;;;;;;;;5052258;28;20063;-89
2021/07/16 08:39:40;;;;;;;33.83;6.70;;;;;;;;;;5053147;28;20021;-90
2021/07/16 08:42:06;;;;;;;33.38;7.22;;;;;;;;;;5051913;28;20025;-89
2021/07/16 08:44:32;;;;;;;24.08;6.40;;;;;;;;;;5046864;28;20020;-90
2021/07/16 08:46:58;;;;;;;34.08;6.40;;;;;;;;;;5051443;28;20032;-90
2021/07/16 08:49:24;;;;;;;29.48;6.85;;;;;;;;;;5053431;28;20033;-90
2021/07/16 08:51:49;;;;;;;27.05;7.45;;;;;;;;;;5048921;28;20053;-90
2021/07/16 08:54:17;;;;;;;73.97;9.07;;;;;;;;;;5041490;28;20375;-90
2021/07/16 08:56:42;;;;;;;35.35;7.78;;;;;;;;;;5052724;28;20028;-90
2021/07/16 08:59:09;;;;;;;35.58;7.40;;;;;;;;;;5052156;28;20017;-90
2021/07/16 09:01:39;;;;;;;33.10;7.10;;;;;;;;;;5051653;28;20021;-90
2021/07/16 09:04:06;;;;;;;29.77;6.75;;;;;;;;;;5039841;28;20017;-89
2021/07/16 09:06:49;;;;;;;24.85;5.93;;;;;;;;;;5052879;28;20021;-90
2021/07/16 09:09:17;;;;;;;27.50;6.57;;;;;;;;;;5040673;28;20025;-90
2021/07/16 09:11:43;;;;;;;26.15;6.45;;;;;;;;;;5052215;28;20532;-90
2021/07/16 09:14:16;;;;;;;32.90;7.30;;;;;;;;;;5053138;28;20109;-89
2021/07/16 09:16:51;;;;;;;26.13;6.03;;;;;;;;;;5053613;28;20048;-90
2021/07/16 09:19:25;;;;;;;30.00;6.47;;;;;;;;;;5051891;28;20021;-89
2021/07/16 09:21:57;;;;;;;28.20;5.75;;;;;;;;;;5051851;28;20013;-90
2021/07/16 09:24:26;;;;;;;24.38;7.13;;;;;;;;;;5051872;28;20130;-90
2021/07/16 09:26:51;;;;;;;35.78;6.28;;;;;;;;;;5051541;28;20021;-90
2021/07/16 09:29:25;;;;;;;39.75;5.82;;;;;;;;;;5052660;28;20020;-90
2021/07/16 09:32:00;;;;;;;24.88;5.90;;;;;;;;;;5051425;28;20028;-90
2021/07/16 09:34:26;;;;;;;36.10;6.40;;;;;;;;;;5051422;28;20557;-90
2021/07/16 09:36:51;;;;;;;32.63;6.28;;;;;;;;;;5052672;28;20124;-90
2021/07/16 09:39:18;;;;;;;21.10;5.68;;;;;;;;;;5051435;28;20028;-90
2021/07/16 09:41:51;;;;;;;31.38;6.38;;;;;;;;;;5051368;28;20041;-90
2021/07/16 09:44:29;;;;;;;28.75;6.60;;;;;;;;;;5051345;28;20410;-90
2021/07/16 09:47:13;;;;;;;49.13;7.15;;;;;;;;;;5051241;28;20025;-90
2021/07/16 09:49:39;;;;;;;28.10;6.05;;;;;;;;;;5051338;28;20387;-90
2021/07/16 09:52:07;;;;;;;40.13;6.90;;;;;;;;;;5041155;28;20029;-90
2021/07/16 09:54:33;;;;;;;29.90;6.30;;;;;;;;;;5051221;28;20090;-90
2021/07/16 09:56:58;;;;;;;36.65;8.00;;;;;;;;;;5051289;28;20060;-90
2021/07/16 09:59:27;;;;;;;44.85;7.95;;;;;;;;;;5051104;28;20016;-90
2021/07/16 10:01:53;;;;;;;32.80;7.18;;;;;;;;;;5051342;28;20023;-90
2021/07/16 10:04:20;;;;;;;22.10;5.20;;;;;;;;;;5051166;28;20017;-90
2021/07/16 10:06:47;;;;;;;31.83;6.18;;;;;;;;;;5052231;28;20021;-90
2021/07/16 10:09:13;;;;;;;28.35;6.63;;;;;;;;;;5054091;28;20025;-90
2021/07/16 10:11:39;;;;;;;31.15;6.47;;;;;;;;;;5055323;28;20510;-90
2021/07/16 10:14:05;;;;;;;44.20;7.47;;;;;;;;;;5055091;28;20070;-90
2021/07/16 10:16:30;;;;;;;36.95;7.45;;;;;;;;;;5056267;28;20024;-90
2021/07/16 10:18:56;;;;;;;47.10;6.05;;;;;;;;;;5056008;28;20021;-89
2021/07/16 10:21:22;;;;;;;30.20;6.78;;;;;;;;;;5054936;28;20448;-87
2021/07/16 10:23:52;;;;;;;24.27;5.63;;;;;;;;;;5054822;28;20025;-87
2021/07/16 10:26:19;;;;;;;42.40;8.40;;;;;;;;;;5054205;28;20480;-86
2021/07/16 10:28:45;;;;;;;25.23;6.45;;;;;;;;;;5054993;28;20029;-88
2021/07/16 10:31:37;;;;;;;29.60;6.45;;;;;;;;;;5054717;28;20025;-86
2021/07/16 10:34:28;;;;;;;40.47;7.35;;;;;;;;;;5046005;28;20032;-87
2021/07/16 10:36:57;;;;;;;31.60;6.97;;;;;;;;;;5083231;28;20029;-89
2021/07/16 10:39:38;;;;;;;37.78;6.82;;;;;;;;;;5055594;28;20285;-90
2021/07/16 10:42:22;;;;;;;41.90;7.30;;;;;;;;;;5042111;28;20116;-90
2021/07/16 10:44:47;;;;;;;31.40;6.80;;;;;;;;;;5054693;28;20024;-89
2021/07/16 10:47:33;;;;;;;40.28;8.43;;;;;;;;;;5043502;28;20032;-89
2021/07/16 10:49:59;;;;;;;38.80;8.00;;;;;;;;;;5053706;28;20029;-89
2021/07/16 10:52:47;;;;;;;59.42;9.48;;;;;;;;;;5054295;28;20028;-90
2021/07/16 10:55:35;;;;;;;45.25;5.82;;;;;;;;;;5054055;28;20108;-89
2021/07/16 10:58:16;;;;;;;40.88;7.15;;;;;;;;;;5043715;28;20036;-90
2021/07/16 11:00:41;;;;;;;34.78;6.93;;;;;;;;;;5048748;28;20116;-89
2021/07/16 11:03:10;;;;;;;38.28;6.60;;;;;;;;;;5054034;28;20047;-90
2021/07/16 11:05:45;;;;;;;33.00;6.80;;;;;;;;;;5054025;28;20357;-90
2021/07/16 11:08:29;;;;;;;26.75;5.97;;;;;;;;;;5054035;28;20017;-90
2021/07/16 11:11:01;;;;;;;32.67;7.13;;;;;;;;;;5043012;28;20017;-89
2021/07/16 11:13:36;;;;;;;36.88;6.95;;;;;;;;;;5054195;28;20468;-90
2021/07/16 11:18:57;;;;;;;35.25;7.43;;;;;;;;;;5055306;28;20044;-90
2021/07/16 11:21:41;;;;;;;37.63;7.28;;;;;;;;;;5054206;28;20376;-90
2021/07/16 11:24:06;;;;;;;49.72;10.35;;;;;;;;;;5053804;28;20028;-90
2021/07/16 11:26:31;;;;;;;35.17;10.02;;;;;;;;;;5053588;28;20021;-90
2021/07/16 11:28:57;;;;;;;36.50;8.93;;;;;;;;;;5055015;28;20029;-90
2021/07/16 11:31:22;;;;;;;29.25;9.38;;;;;;;;;;5053457;28;20350;-90
2021/07/16 11:33:56;;;;;;;34.40;7.45;;;;;;;;;;5050359;28;20025;-90
2021/07/16 11:36:22;;;;;;;31.23;8.13;;;;;;;;;;5050108;28;20017;-90
2021/07/16 11:38:54;;;;;;;35.60;9.00;;;;;;;;;;5053216;28;20025;-90
2021/07/16 11:41:28;;;;;;;29.85;8.23;;;;;;;;;;5053206;28;20029;-89
2021/07/16 11:43:53;;;;;;;38.47;9.32;;;;;;;;;;5053478;28;20029;-89
2021/07/16 11:46:28;;;;;;;30.35;8.63;;;;;;;;;;5054460;28;20039;-90
2021/07/16 11:48:53;;;;;;;33.47;8.80;;;;;;;;;;5052755;28;20029;-90
2021/07/16 11:51:28;;;;;;;31.23;8.32;;;;;;;;;;5042683;28;20449;-90
2021/07/16 11:53:53;;;;;;;26.17;9.25;;;;;;;;;;5049990;28;20020;-90
2021/07/16 11:56:19;;;;;;;37.63;9.50;;;;;;;;;;5052092;28;20495;-89
2021/07/16 11:58:48;;;;;;;32.10;10.20;;;;;;;;;;5052901;28;20029;-90
2021/07/16 12:01:13;;;;;;;38.00;9.40;;;;;;;;;;5084203;28;20468;-90
2021/07/16 12:03:38;;;;;;;37.88;9.85;;;;;;;;;;5052723;28;20013;-89
2021/07/16 12:06:05;;;;;;;39.13;9.43;;;;;;;;;;5052913;28;20025;-90
2021/07/16 12:08:31;;;;;;;42.35;9.07;;;;;;;;;;5052505;28;20376;-89
2021/07/16 12:11:02;;;;;;;32.83;9.45;;;;;;;;;;5052828;28;20013;-90
2021/07/16 12:13:27;;;;;;;34.63;9.90;;;;;;;;;;5052412;28;20431;-90
2021/07/16 12:16:05;;;;;;;26.67;9.50;;;;;;;;;;5053737;28;20013;-90
2021/07/16 12:18:31;;;;;;;35.20;10.13;;;;;;;;;;5052516;28;20503;-89
2021/07/16 12:20:56;;;;;;;36.20;11.05;;;;;;;;;;5058988;28;20017;-90
2021/07/16 12:23:22;;;;;;;38.88;10.48;;;;;;;;;;5060666;28;20050;-89
2021/07/16 12:25:48;;;;;;;35.15;9.55;;;;;;;;;;5052001;28;20526;-90
2021/07/16 12:28:24;;;;;;;37.08;9.98;;;;;;;;;;5052016;28;20111;-89
2021/07/16 12:30:59;;;;;;;38.55;10.95;;;;;;;;;;5046572;28;20429;-90
2021/07/16 12:33:31;;;;;;;32.42;9.20;;;;;;;;;;5038689;28;20025;-89
2021/07/16 12:35:56;;;;;;;32.75;9.27;;;;;;;;;;5052238;28;20051;-90
2021/07/16 12:38:21;;;;;;;35.17;10.57;;;;;;;;;;5052687;28;20021;-90
2021/07/16 12:40:47;;;;;;;36.13;10.88;;;;;;;;;;5052972;28;20025;-90
2021/07/16 12:43:17;;;;;;;29.42;9.60;;;;;;;;;;5085667;28;20021;-90
2021/07/16 12:45:45;;;;;;;30.83;10.23;;;;;;;;;;5052064;28;20075;-89
2021/07/16 12:48:12;;;;;;;30.38;10.43;;;;;;;;;;5053293;28;20036;-89
2021/07/16 12:50:38;;;;;;;43.17;11.00;;;;;;;;;;5085779;28;20134;-90
2021/07/16 12:53:03;;;;;;;30.80;8.95;;;;;;;;;;5052310;28;20552;-90
2021/07/16 12:55:32;;;;;;;29.15;8.52;;;;;;;;;;5052720;28;20071;-90
2021/07/16 12:57:59;;;;;;;32.60;8.60;;;;;;;;;;5051847;28;20155;-90
2021/07/16 13:00:24;;;;;;;28.33;9.27;;;;;;;;;;5051649;28;20013;-90
2021/07/16 13:02:50;;;;;;;34.58;10.00;;;;;;;;;;5052201;28;20556;-89
2021/07/16 13:05:28;;;;;;;27.38;9.18;;;;;;;;;;5053261;28;20021;-90
2021/07/16 13:08:12;;;;;;;33.90;10.30;;;;;;;;;;5052067;28;20025;-90
2021/07/16 13:10:44;;;;;;;31.42;9.35;;;;;;;;;;5085502;28;20099;-90
2021/07/16 13:13:10;;;;;;;20.83;7.43;;;;;;;;;;5051833;28;20025;-90
2021/07/16 13:15:35;;;;;;;34.70;9.93;;;;;;;;;;5051770;28;20036;-90
2021/07/16 13:18:07;;;;;;;34.67;8.90;;;;;;;;;;5051788;28;20039;-91
2021/07/16 13:20:32;;;;;;;31.00;10.75;;;;;;;;;;5051853;28;20033;-91
2021/07/16 13:22:57;;;;;;;41.95;11.10;;;;;;;;;;5051960;28;20029;-90
2021/07/16 13:25:22;;;;;;;28.25;9.13;;;;;;;;;;5051580;28;20380;-90
2021/07/16 13:27:48;;;;;;;31.83;10.60;;;;;;;;;;5051897;28;20013;-90
2021/07/16 13:30:13;;;;;;;36.17;10.38;;;;;;;;;;5085296;28;20384;-90
2021/07/16 13:32:39;;;;;;;35.75;10.48;;;;;;;;;;5051657;28;20053;-90
2021/07/16 13:35:05;;;;;;;24.88;11.88;;;;;;;;;;5051538;28;20021;-90
2021/07/16 13:37:32;;;;;;;37.17;11.57;;;;;;;;;;5085204;28;20060;-89
2021/07/16 13:39:58;;;;;;;30.50;11.85;;;;;;;;;;5051343;28;20116;-90
2021/07/16 13:42:23;;;;;;;36.33;12.25;;;;;;;;;;5085389;28;20049;-90
2021/07/16 13:44:48;;;;;;;35.55;14.13;;;;;;;;;;5056665;28;20695;-90
2021/07/16 13:47:14;;;;;;;34.10;11.00;;;;;;;;;;5055312;28;20032;-90
2021/07/16 13:49:39;;;;;;;31.33;9.43;;;;;;;;;;5053395;28;20018;-90
2021/07/16 13:52:05;;;;;;;25.65;10.25;;;;;;;;;;5088857;28;20108;-90
2021/07/16 13:54:30;;;;;;;29.10;10.90;;;;;;;;;;5089110;28;20052;-90
2021/07/16 13:56:55;;;;;;;39.60;11.80;;;;;;;;;;5050472;28;20021;-90
2021/07/16 13:59:23;;;;;;;44.40;12.00;;;;;;;;;;5055357;28;20052;-90
2021/07/16 14:01:50;;;;;;;41.80;10.75;;;;;;;;;;5053885;28;20022;-91
2021/07/16 14:04:15;;;;;;;34.97;9.93;;;;;;;;;;5088943;28;20021;-90
2021/07/16 14:06:40;;;;;;;44.95;10.65;;;;;;;;;;5056589;28;20013;-90
2021/07/16 14:09:05;;;;;;;41.17;10.15;;;;;;;;;;5055233;28;20025;-91
2021/07/16 14:11:31;;;;;;;32.65;10.88;;;;;;;;;;5055006;28;20384;-90
2021/07/16 14:13:56;;;;;;;31.75;10.75;;;;;;;;;;5054958;28;20024;-90
2021/07/16 14:16:21;;;;;;;39.90;9.70;;;;;;;;;;5055035;28;20029;-90
2021/07/16 14:18:46;;;;;;;34.78;11.82;;;;;;;;;;5055014;28;20017;-91
2021/07/16 14:21:11;;;;;;;34.83;10.70;;;;;;;;;;5088479;28;20021;-90
2021/07/16 14:23:37;;;;;;;35.30;9.90;;;;;;;;;;5055144;28;20027;-90
2021/07/16 14:26:04;;;;;;;36.10;10.65;;;;;;;;;;5054722;28;20013;-91